createdAt,value
2023-05-10T00:01:20.509Z,31.14
2023-05-10T00:03:49.541Z,31.59
2023-05-10T00:06:17.211Z,31.44
2023-05-10T00:08:44.893Z,31.47
2023-05-10T00:11:12.499Z,31.38
2023-05-10T00:13:40.115Z,31.86
2023-05-10T00:16:08.120Z,31.57
2023-05-10T00:18:35.795Z,32.17
2023-05-10T00:21:04.962Z,31.46
2023-05-10T00:23:32.565Z,31.69
2023-05-10T00:26:00.202Z,31.56
2023-05-10T00:28:29.190Z,31.64
2023-05-10T00:30:57.873Z,32.01
2023-05-10T00:33:25.552Z,31.80
2023-05-10T00:35:53.459Z,31.95
2023-05-10T00:38:22.514Z,31.70
2023-05-10T00:40:50.256Z,31.56
2023-05-10T00:43:25.870Z,31.50
2023-05-10T00:45:53.651Z,31.44
2023-05-10T00:48:21.310Z,31.56
2023-05-10T00:50:48.927Z,31.71
2023-05-10T00:53:16.525Z,31.28
2023-05-10T00:55:46.657Z,31.90
2023-05-10T00:58:14.957Z,31.52
2023-05-10T01:00:43.573Z,31.77
2023-05-10T01:03:11.829Z,31.39
2023-05-10T01:05:39.525Z,31.96
2023-05-10T01:08:07.259Z,32.12
2023-05-10T01:10:34.840Z,31.79
2023-05-10T01:13:05.137Z,32.32
2023-05-10T01:15:32.824Z,31.95
2023-05-10T01:18:00.523Z,31.90
2023-05-10T01:20:28.165Z,31.79
2023-05-10T01:23:03.345Z,31.91
2023-05-10T01:25:34.762Z,31.92
2023-05-10T01:28:24.001Z,32.18
2023-05-10T01:31:25.281Z,32.37
2023-05-10T01:33:57.608Z,32.43
2023-05-10T01:36:27.976Z,32.33
2023-05-10T01:38:57.903Z,32.29
2023-05-10T01:41:27.372Z,32.46
2023-05-10T01:43:56.571Z,32.77
2023-05-10T01:46:26.910Z,32.52
2023-05-10T01:48:56.346Z,32.42
2023-05-10T01:51:24.554Z,32.77
2023-05-10T01:53:52.233Z,32.28
2023-05-10T01:56:20.567Z,32.94
2023-05-10T01:58:48.166Z,33.25
2023-05-10T02:01:15.908Z,33.36
2023-05-10T02:03:43.643Z,32.85
2023-05-10T02:06:15.478Z,32.74
2023-05-10T02:08:43.078Z,32.92
2023-05-10T02:11:10.888Z,32.95
2023-05-10T02:13:40.306Z,33.71
2023-05-10T02:16:08.314Z,33.29
2023-05-10T02:18:36.079Z,33.12
2023-05-10T02:21:03.747Z,33.41
2023-05-10T02:23:40.574Z,33.39
2023-05-10T02:26:08.202Z,33.59
2023-05-10T02:28:35.820Z,33.79
2023-05-10T02:31:06.398Z,33.91
2023-05-10T02:33:34.038Z,33.53
2023-05-10T02:36:01.664Z,33.48
2023-05-10T02:38:29.296Z,34.05
2023-05-10T02:40:59.379Z,33.97
2023-05-10T02:43:27.019Z,33.88
2023-05-10T02:45:54.742Z,34.20
2023-05-10T02:48:25.200Z,34.01
2023-05-10T02:50:52.953Z,34.10
2023-05-10T02:53:23.630Z,34.62
2023-05-10T02:55:52.454Z,34.38
2023-05-10T02:58:21.824Z,34.67
2023-05-10T03:00:49.463Z,34.36
2023-05-10T03:03:17.141Z,34.34
2023-05-10T03:05:44.747Z,34.33
2023-05-10T03:08:12.350Z,34.21
2023-05-10T03:10:41.789Z,34.32
2023-05-10T03:13:12.112Z,34.38
2023-05-10T03:15:43.372Z,34.42
2023-05-10T03:18:12.087Z,34.19
2023-05-10T03:20:40.886Z,34.19
2023-05-10T03:23:10.637Z,34.01
2023-05-10T03:25:38.283Z,33.99
2023-05-10T03:28:13.773Z,34.07
2023-05-10T03:30:45.626Z,33.92
2023-05-10T03:33:14.326Z,33.90
2023-05-10T03:35:46.700Z,34.17
2023-05-10T03:38:15.128Z,34.31
2023-05-10T03:40:42.800Z,34.33
2023-05-10T03:43:10.511Z,34.25
2023-05-10T03:45:38.181Z,34.18
2023-05-10T03:48:07.871Z,34.26
2023-05-10T03:50:35.508Z,34.37
2023-05-10T03:53:03.752Z,34.40
2023-05-10T03:55:35.421Z,34.07
2023-05-10T03:58:05.202Z,34.01
2023-05-10T04:00:34.107Z,33.85
2023-05-10T04:03:02.434Z,33.46
2023-05-10T04:05:31.469Z,33.74
2023-05-10T04:07:59.107Z,33.56
2023-05-10T04:10:26.783Z,33.57
2023-05-10T04:12:54.462Z,33.46
2023-05-10T04:15:22.300Z,33.46
2023-05-10T04:17:54.126Z,33.38
2023-05-10T04:20:24.623Z,33.77
2023-05-10T04:22:59.552Z,33.67
2023-05-10T04:25:27.402Z,33.44
2023-05-10T04:27:56.054Z,33.07
2023-05-10T04:30:23.680Z,33.06
2023-05-10T04:32:51.374Z,33.11
2023-05-10T04:35:19.104Z,32.43
2023-05-10T04:37:49.271Z,32.71
2023-05-10T04:40:18.526Z,33.11
2023-05-10T04:42:46.416Z,32.66
2023-05-10T04:45:16.674Z,32.21
2023-05-10T04:47:44.336Z,32.57
2023-05-10T04:50:12.000Z,32.96
2023-05-10T04:52:39.595Z,32.48
2023-05-10T04:55:08.952Z,32.12
2023-05-10T04:57:39.180Z,31.95
2023-05-10T05:00:07.529Z,32.15
2023-05-10T05:02:35.194Z,31.88
2023-05-10T05:05:03.307Z,32.01
2023-05-10T05:07:31.555Z,31.86
2023-05-10T05:09:59.214Z,32.00
2023-05-10T05:12:26.776Z,31.93
2023-05-10T05:14:55.804Z,31.87
2023-05-10T05:17:23.387Z,31.68
2023-05-10T05:19:51.070Z,32.50
2023-05-10T05:22:19.726Z,31.50
2023-05-10T05:24:47.698Z,31.46
2023-05-10T05:27:15.313Z,31.28
2023-05-10T05:29:42.910Z,31.35
2023-05-10T05:32:14.805Z,31.08
2023-05-10T05:34:42.524Z,31.21
2023-05-10T05:37:10.239Z,30.70
2023-05-10T05:39:38.255Z,30.67
2023-05-10T05:42:06.084Z,31.42
2023-05-10T05:44:33.780Z,31.62
2023-05-10T05:47:01.536Z,30.83
2023-05-10T05:49:30.884Z,30.82
2023-05-10T05:52:00.551Z,30.78
2023-05-10T05:54:28.286Z,30.55
2023-05-10T05:56:56.190Z,30.24
2023-05-10T05:59:23.830Z,30.39
2023-05-10T06:01:51.482Z,29.87
2023-05-10T06:04:19.285Z,30.82
2023-05-10T06:06:48.424Z,30.15
2023-05-10T06:09:16.051Z,30.91
2023-05-10T06:11:44.044Z,31.05
2023-05-10T06:14:11.726Z,29.98
2023-05-10T06:16:39.476Z,29.77
2023-05-10T06:19:07.167Z,30.26
2023-05-10T06:21:34.854Z,30.08
2023-05-10T06:24:03.883Z,30.13
2023-05-10T06:26:31.552Z,30.74
2023-05-10T06:29:02.365Z,30.96
2023-05-10T06:31:30.081Z,30.43
2023-05-10T06:33:58.813Z,30.70
2023-05-10T06:36:27.443Z,29.97
2023-05-10T06:38:55.206Z,29.59
2023-05-10T06:41:24.936Z,30.03
2023-05-10T06:43:52.676Z,29.47
2023-05-10T06:46:20.400Z,29.29
2023-05-10T06:48:48.096Z,28.91
2023-05-10T06:51:15.805Z,29.70
2023-05-10T06:53:43.383Z,29.00
2023-05-10T06:56:11.164Z,29.19
2023-05-10T06:58:40.231Z,28.79
2023-05-10T07:01:08.095Z,28.45
2023-05-10T07:03:35.979Z,28.54
2023-05-10T07:06:05.163Z,28.79
2023-05-10T07:08:32.854Z,28.91
2023-05-10T07:11:04.334Z,28.86
2023-05-10T07:13:32.644Z,29.19
2023-05-10T07:16:02.889Z,28.39
2023-05-10T07:18:30.678Z,28.02
2023-05-10T07:20:58.839Z,27.85
2023-05-10T07:23:26.536Z,28.52
2023-05-10T07:25:54.380Z,27.97
2023-05-10T07:28:22.053Z,27.74
2023-05-10T07:30:49.729Z,27.71
2023-05-10T07:33:18.831Z,28.46
2023-05-10T07:35:46.529Z,27.57
2023-05-10T07:38:14.254Z,27.98
2023-05-10T07:40:41.841Z,27.49
2023-05-10T07:43:09.468Z,27.93
2023-05-10T07:45:37.160Z,27.39
2023-05-10T07:48:04.914Z,26.97
2023-05-10T07:50:33.940Z,26.97
2023-05-10T07:53:01.603Z,26.72
2023-05-10T07:55:29.186Z,27.31
2023-05-10T07:57:57.009Z,26.35
2023-05-10T08:00:24.567Z,26.46
2023-05-10T08:02:52.419Z,26.22
2023-05-10T08:05:20.117Z,26.42
2023-05-10T08:07:49.112Z,26.07
2023-05-10T08:10:17.747Z,26.45
2023-05-10T08:12:45.498Z,26.33
2023-05-10T08:15:13.130Z,26.16
2023-05-10T08:17:40.761Z,26.57
2023-05-10T08:20:09.383Z,26.27
2023-05-10T08:22:37.010Z,26.07
2023-05-10T08:25:06.504Z,26.00
2023-05-10T08:27:36.042Z,26.36
2023-05-10T08:30:03.643Z,26.08
2023-05-10T08:32:31.773Z,26.23
2023-05-10T08:34:59.600Z,25.87
2023-05-10T08:37:27.196Z,25.62
2023-05-10T08:39:54.832Z,25.88
2023-05-10T08:42:24.150Z,27.15
2023-05-10T08:44:51.750Z,26.25
2023-05-10T08:47:19.383Z,26.08
2023-05-10T08:49:47.150Z,26.24
2023-05-10T08:52:14.815Z,26.42
2023-05-10T08:54:42.507Z,25.81
2023-05-10T08:57:10.365Z,25.11
2023-05-10T08:59:40.407Z,25.28
2023-05-10T09:02:08.075Z,25.17
2023-05-10T09:04:35.759Z,24.68
2023-05-10T09:07:03.477Z,25.59
2023-05-10T09:09:31.065Z,26.05
2023-05-10T09:11:58.731Z,26.17
2023-05-10T09:14:26.589Z,26.50
2023-05-10T09:16:56.175Z,26.21
2023-05-10T09:19:23.856Z,25.89
2023-05-10T09:21:51.563Z,25.56
2023-05-10T09:24:19.221Z,25.54
2023-05-10T09:26:50.337Z,25.39
2023-05-10T09:29:18.197Z,25.49
2023-05-10T09:31:47.329Z,24.80
2023-05-10T09:34:19.745Z,25.49
2023-05-10T09:36:54.245Z,25.16
2023-05-10T09:39:22.174Z,24.90
2023-05-10T09:41:50.054Z,25.24
2023-05-10T09:44:19.791Z,25.53
2023-05-10T09:46:50.959Z,25.07
2023-05-10T09:49:19.955Z,24.23
2023-05-10T09:51:47.598Z,23.83
2023-05-10T09:54:16.162Z,24.39
2023-05-10T09:56:43.910Z,24.25
2023-05-10T09:59:12.188Z,23.89
2023-05-10T10:01:39.904Z,24.19
2023-05-10T10:04:08.290Z,24.11
2023-05-10T10:06:40.300Z,24.35
2023-05-10T10:09:08.489Z,23.99
2023-05-10T10:11:36.770Z,23.51
2023-05-10T10:14:04.658Z,23.73
2023-05-10T10:16:32.462Z,23.71
2023-05-10T10:19:00.433Z,23.02
2023-05-10T10:21:32.027Z,23.80
2023-05-10T10:24:01.044Z,22.91
2023-05-10T10:26:28.658Z,23.13
2023-05-10T10:28:59.290Z,23.19
2023-05-10T10:31:47.393Z,23.08
2023-05-10T10:34:19.379Z,22.46
2023-05-10T10:36:47.987Z,22.58
2023-05-10T10:39:17.051Z,22.37
2023-05-10T10:41:51.133Z,22.52
2023-05-10T10:44:25.558Z,22.21
2023-05-10T10:47:09.265Z,22.63
2023-05-10T10:49:40.361Z,22.94
2023-05-10T10:52:17.818Z,22.59
2023-05-10T10:54:51.005Z,22.35
2023-05-10T10:57:19.962Z,22.18
2023-05-10T10:59:47.658Z,22.28
2023-05-10T11:02:31.284Z,22.28
2023-05-10T11:04:59.142Z,22.10
2023-05-10T11:07:26.803Z,22.15
2023-05-10T11:09:55.749Z,22.01
2023-05-10T11:12:23.401Z,21.78
2023-05-10T11:14:51.950Z,21.23
2023-05-10T11:17:24.484Z,21.13
2023-05-10T11:20:05.465Z,21.11
2023-05-10T11:22:33.274Z,21.35
2023-05-10T11:25:03.267Z,20.88
2023-05-10T11:27:30.929Z,21.72
2023-05-10T11:29:58.525Z,20.68
2023-05-10T11:32:26.156Z,21.20
2023-05-10T11:34:53.822Z,20.94
2023-05-10T11:37:21.452Z,20.03
2023-05-10T11:39:49.292Z,19.12
2023-05-10T11:42:18.231Z,18.30
2023-05-10T11:44:51.651Z,17.31
2023-05-10T11:47:19.291Z,16.41
2023-05-10T11:49:48.880Z,15.81
2023-05-10T11:52:31.356Z,15.57
2023-05-10T11:54:59.412Z,15.02
2023-05-10T11:57:29.482Z,15.01
2023-05-10T11:59:58.107Z,14.58
2023-05-10T12:02:25.848Z,14.28
2023-05-10T12:04:53.613Z,13.65
2023-05-10T12:07:21.297Z,13.09
2023-05-10T12:10:03.791Z,11.75
2023-05-10T12:12:38.489Z,12.03
2023-05-10T12:15:07.286Z,11.50
2023-05-10T12:17:35.553Z,9.98
2023-05-10T12:20:15.765Z,11.27
2023-05-10T12:22:45.788Z,10.91
2023-05-10T12:25:13.360Z,10.62
2023-05-10T12:27:43.375Z,11.18
2023-05-10T12:30:11.533Z,10.90
2023-05-10T12:32:39.640Z,10.56
2023-05-10T12:35:07.558Z,11.15
2023-05-10T12:37:39.968Z,10.47
2023-05-10T12:40:08.956Z,10.45
2023-05-10T12:42:37.269Z,9.69
2023-05-10T12:45:06.901Z,10.10
2023-05-10T12:47:34.789Z,9.71
2023-05-10T12:50:03.488Z,9.56
2023-05-10T12:52:31.258Z,10.02
2023-05-10T12:54:58.884Z,9.85
2023-05-10T12:57:26.551Z,9.77
2023-05-10T12:59:54.221Z,9.64
2023-05-10T13:02:24.138Z,10.12
2023-05-10T13:04:52.085Z,10.12
2023-05-10T13:07:19.781Z,9.95
2023-05-10T13:09:47.436Z,9.13
2023-05-10T13:12:15.105Z,9.38
2023-05-10T13:14:42.792Z,9.86
2023-05-10T13:17:10.559Z,10.53
2023-05-10T13:19:39.687Z,10.41
2023-05-10T13:22:07.304Z,10.07
2023-05-10T13:24:34.943Z,9.37
2023-05-10T13:27:02.527Z,9.13
2023-05-10T13:29:30.134Z,9.39
2023-05-10T13:31:57.869Z,8.74
2023-05-10T13:34:25.511Z,9.28
2023-05-10T13:36:56.717Z,9.19
2023-05-10T13:39:24.305Z,9.04
2023-05-10T13:41:53.797Z,9.49
2023-05-10T13:44:22.307Z,9.22
2023-05-10T13:46:50.028Z,9.16
2023-05-10T13:49:17.762Z,9.68
2023-05-10T13:51:45.586Z,9.41
2023-05-10T13:54:14.573Z,8.71
2023-05-10T13:57:05.657Z,8.65
2023-05-10T13:59:33.316Z,8.94
2023-05-10T14:02:01.136Z,8.63
2023-05-10T14:04:28.888Z,8.88
2023-05-10T14:06:56.776Z,7.94
2023-05-10T14:09:25.836Z,8.48
2023-05-10T14:11:53.515Z,9.52
2023-05-10T14:14:21.490Z,9.31
2023-05-10T14:16:49.392Z,7.97
2023-05-10T14:19:17.162Z,8.17
2023-05-10T14:21:45.126Z,8.11
2023-05-10T14:24:12.919Z,7.67
2023-05-10T14:26:41.942Z,8.13
2023-05-10T14:29:11.563Z,8.61
2023-05-10T14:31:40.232Z,8.87
2023-05-10T14:34:07.920Z,8.63
2023-05-10T14:36:35.637Z,8.47
2023-05-10T14:39:03.841Z,7.76
2023-05-10T14:41:31.970Z,8.02
2023-05-10T14:44:00.947Z,8.40
2023-05-10T14:46:28.944Z,8.29
2023-05-10T14:48:56.770Z,7.49
2023-05-10T14:51:24.380Z,7.51
2023-05-10T14:53:52.016Z,7.19
2023-05-10T14:56:19.655Z,7.58
2023-05-10T14:58:47.365Z,8.13
2023-05-10T15:01:16.388Z,8.14
2023-05-10T15:03:44.198Z,9.30
2023-05-10T15:06:12.676Z,8.88
2023-05-10T15:08:40.311Z,9.24
2023-05-10T15:11:07.972Z,10.22
2023-05-10T15:13:35.554Z,11.43
2023-05-10T15:16:03.237Z,12.24
2023-05-10T15:18:32.283Z,12.41
2023-05-10T15:20:59.901Z,12.20
2023-05-10T15:23:27.604Z,11.47
2023-05-10T15:25:56.647Z,11.46
2023-05-10T15:28:24.588Z,11.60
2023-05-10T15:30:52.190Z,11.69
2023-05-10T15:33:19.790Z,10.83
2023-05-10T15:35:48.775Z,10.57
2023-05-10T15:38:16.393Z,11.39
2023-05-10T15:40:44.000Z,12.52
2023-05-10T15:43:11.624Z,12.61
2023-05-10T15:45:39.249Z,13.03
2023-05-10T15:48:07.512Z,13.77
2023-05-10T15:50:35.143Z,14.29
2023-05-10T15:53:04.144Z,15.40
2023-05-10T15:55:32.218Z,16.18
2023-05-10T15:57:59.839Z,16.50
2023-05-10T16:00:27.643Z,16.68
2023-05-10T16:02:55.410Z,17.01
2023-05-10T16:05:23.162Z,16.80
2023-05-10T16:07:50.809Z,17.01
2023-05-10T16:10:19.798Z,16.81
2023-05-10T16:12:47.524Z,17.39
2023-05-10T16:15:15.402Z,20.88
2023-05-10T16:17:43.299Z,22.12
2023-05-10T16:20:11.282Z,24.92
2023-05-10T16:22:38.978Z,24.91
2023-05-10T16:25:07.336Z,24.65
2023-05-10T16:27:36.513Z,25.81
2023-05-10T16:30:04.283Z,26.18
2023-05-10T16:32:31.857Z,25.91
2023-05-10T16:34:59.845Z,27.25
2023-05-10T16:37:27.559Z,25.73
2023-05-10T16:39:55.170Z,25.41
2023-05-10T16:42:23.929Z,24.90
2023-05-10T16:44:52.997Z,25.97
2023-05-10T16:47:20.599Z,27.10
2023-05-10T16:49:48.270Z,26.38
2023-05-10T16:52:15.906Z,27.49
2023-05-10T16:54:43.529Z,26.88
2023-05-10T16:57:11.198Z,24.34
2023-05-10T16:59:38.954Z,24.95
2023-05-10T17:02:08.005Z,24.57
2023-05-10T17:04:36.082Z,23.98
2023-05-10T17:07:03.777Z,25.26
2023-05-10T17:09:31.393Z,23.82
2023-05-10T17:11:58.989Z,24.73
2023-05-10T17:14:26.954Z,25.41
2023-05-10T17:16:55.471Z,25.10
2023-05-10T17:19:26.265Z,26.73
2023-05-10T17:21:54.081Z,26.90
2023-05-10T17:24:21.709Z,28.53
2023-05-10T17:26:49.368Z,26.95
2023-05-10T17:29:17.048Z,27.13
2023-05-10T17:31:44.687Z,27.22
2023-05-10T17:34:12.343Z,27.40
2023-05-10T17:36:41.481Z,27.77
2023-05-10T17:39:09.089Z,28.85
2023-05-10T17:41:36.659Z,29.50
2023-05-10T17:44:04.287Z,27.86
2023-05-10T17:46:32.347Z,28.79
2023-05-10T17:48:59.946Z,29.43
2023-05-10T17:51:28.837Z,29.80
2023-05-10T17:53:57.862Z,30.42
2023-05-10T17:56:25.473Z,29.56
2023-05-10T17:58:53.057Z,30.48
2023-05-10T18:01:21.002Z,30.70
2023-05-10T18:03:49.868Z,30.11
2023-05-10T18:06:17.515Z,30.37
2023-05-10T18:08:45.680Z,30.79
2023-05-10T18:11:14.691Z,31.97
2023-05-10T18:13:42.299Z,31.49
2023-05-10T18:16:12.650Z,32.03
2023-05-10T18:18:40.518Z,31.10
2023-05-10T18:21:08.228Z,33.21
2023-05-10T18:23:35.896Z,32.51
2023-05-10T18:26:03.582Z,32.52
2023-05-10T18:28:32.595Z,31.67
2023-05-10T18:31:00.214Z,30.91
2023-05-10T18:33:28.185Z,31.89
2023-05-10T18:35:55.820Z,31.44
2023-05-10T18:38:23.416Z,31.10
2023-05-10T18:40:51.004Z,31.26
2023-05-10T18:43:18.617Z,31.48
2023-05-10T18:45:47.533Z,31.68
2023-05-10T18:48:15.167Z,32.00
2023-05-10T18:50:42.844Z,32.62
2023-05-10T18:53:12.022Z,32.33
2023-05-10T18:55:39.820Z,32.71
2023-05-10T18:58:07.476Z,33.67
2023-05-10T19:00:35.122Z,34.01
2023-05-10T19:03:04.322Z,34.68
2023-05-10T19:05:31.970Z,34.36
2023-05-10T19:07:59.564Z,35.06
2023-05-10T19:10:27.223Z,35.21
2023-05-10T19:12:54.910Z,35.41
2023-05-10T19:15:22.700Z,35.10
2023-05-10T19:17:50.628Z,35.58
2023-05-10T19:20:19.715Z,35.82
2023-05-10T19:23:02.041Z,36.11
2023-05-10T19:25:35.367Z,36.47
2023-05-10T19:28:03.107Z,36.31
2023-05-10T19:30:31.744Z,36.43
2023-05-10T19:32:59.417Z,36.65
2023-05-10T19:35:28.409Z,37.50
2023-05-10T19:37:56.034Z,37.00
2023-05-10T19:40:23.715Z,37.25
2023-05-10T19:42:51.357Z,37.24
2023-05-10T19:45:19.272Z,37.69
2023-05-10T19:47:47.194Z,37.94
2023-05-10T19:50:20.541Z,38.24
2023-05-10T19:52:50.564Z,38.28
2023-05-10T19:55:27.067Z,38.47
2023-05-10T19:57:54.683Z,38.94
2023-05-10T20:00:22.702Z,39.15
2023-05-10T20:02:50.486Z,39.09
2023-05-10T20:05:18.440Z,39.21
2023-05-10T20:07:46.242Z,39.35
2023-05-10T20:10:15.525Z,39.55
2023-05-10T20:12:43.180Z,39.78
2023-05-10T20:15:11.125Z,40.01
2023-05-10T20:17:38.846Z,40.52
2023-05-10T20:20:07.034Z,40.52
2023-05-10T20:22:34.698Z,40.89
2023-05-10T20:25:02.288Z,40.95
2023-05-10T20:27:31.258Z,41.14
2023-05-10T20:29:58.870Z,41.74
2023-05-10T20:32:26.510Z,42.00
2023-05-10T20:34:54.094Z,41.99
2023-05-10T20:37:21.794Z,42.32
2023-05-10T20:39:50.583Z,42.46
2023-05-10T20:42:18.302Z,42.93
2023-05-10T20:44:47.286Z,43.15
2023-05-10T20:47:15.155Z,43.39
2023-05-10T20:49:42.754Z,43.33
2023-05-10T20:52:10.498Z,43.09
2023-05-10T20:54:38.127Z,43.24
2023-05-10T20:57:05.737Z,43.34
2023-05-10T20:59:33.356Z,43.58
2023-05-10T21:02:02.370Z,43.54
2023-05-10T21:04:30.099Z,43.61
2023-05-10T21:06:57.810Z,42.99
2023-05-10T21:09:25.486Z,43.40
2023-05-10T21:11:53.161Z,43.50
2023-05-10T21:14:21.334Z,43.27
2023-05-10T21:16:51.055Z,43.46
2023-05-10T21:19:20.133Z,43.69
2023-05-10T21:21:47.870Z,43.60
2023-05-10T21:24:16.292Z,43.60
2023-05-10T21:26:43.939Z,42.67
2023-05-10T21:29:11.515Z,42.54
2023-05-10T21:31:39.148Z,42.82
2023-05-10T21:34:06.767Z,42.54
2023-05-10T21:36:35.728Z,42.67
2023-05-10T21:39:03.390Z,42.59
2023-05-10T21:41:30.981Z,43.15
2023-05-10T21:43:58.565Z,43.48
2023-05-10T21:46:26.389Z,43.72
2023-05-10T21:48:54.101Z,43.43
2023-05-10T21:51:22.380Z,43.28
2023-05-10T21:53:51.325Z,43.06
2023-05-10T21:56:18.920Z,43.37
2023-05-10T21:58:46.665Z,43.42
2023-05-10T22:01:14.980Z,43.31
2023-05-10T22:03:42.756Z,43.33
2023-05-10T22:06:10.380Z,43.50
2023-05-10T22:08:38.033Z,43.31
2023-05-10T22:11:07.057Z,43.45
2023-05-10T22:13:34.630Z,43.38
2023-05-10T22:16:02.295Z,43.49
2023-05-10T22:18:30.097Z,43.39
2023-05-10T22:20:57.899Z,43.28
2023-05-10T22:23:25.571Z,43.49
2023-05-10T22:25:53.177Z,43.43
2023-05-10T22:28:22.260Z,43.45
2023-05-10T22:30:49.913Z,43.63
2023-05-10T22:33:17.818Z,43.53
2023-05-10T22:35:45.398Z,43.33
2023-05-10T22:38:13.077Z,43.41
2023-05-10T22:40:40.687Z,43.45
2023-05-10T22:43:08.332Z,43.66
2023-05-10T22:45:37.325Z,43.38
2023-05-10T22:48:05.455Z,43.24
2023-05-10T22:50:33.098Z,43.31
2023-05-10T22:53:00.761Z,42.91
2023-05-10T22:55:28.501Z,43.00
2023-05-10T22:57:56.124Z,42.93
2023-05-10T23:00:23.776Z,43.05
2023-05-10T23:02:52.937Z,43.24
2023-05-10T23:05:20.590Z,43.27
2023-05-10T23:07:52.987Z,43.58
2023-05-10T23:10:20.810Z,43.37
2023-05-10T23:12:48.499Z,43.58
2023-05-10T23:15:16.080Z,43.82
2023-05-10T23:17:43.800Z,43.86
2023-05-10T23:20:13.911Z,44.23
2023-05-10T23:22:41.588Z,44.23
2023-05-10T23:25:09.617Z,44.17
2023-05-10T23:27:37.276Z,44.24
2023-05-10T23:30:05.121Z,44.40
2023-05-10T23:32:32.928Z,44.93
2023-05-10T23:35:00.535Z,45.14
2023-05-10T23:37:29.593Z,45.45
2023-05-10T23:39:57.241Z,45.33
2023-05-10T23:42:24.866Z,45.47
2023-05-10T23:44:52.635Z,45.15
2023-05-10T23:47:20.394Z,45.61
2023-05-10T23:49:48.045Z,45.81
2023-05-10T23:52:15.661Z,45.61
2023-05-10T23:54:45.934Z,46.49
2023-05-10T23:57:13.684Z,47.20
2023-05-10T23:59:41.284Z,47.17
